Time;durP1;ratioP1;P1;durP2;ratioP2;P2;SDS_P1;SDS_P2;PMS_P1;PMS_P2;Temp;Humidity;BMP_temperature;BMP_pressure;BME280_temperature;BME280_humidity;BME280_pressure;Samples;Min_cycle;Max_cycle;Signal;HPM_P1;HPM_P2
2023/01/07 00:02:00;;;;;;;195.05;96.72;;;;;;;;;;5061133;28;20048;-80
2023/01/07 00:04:45;;;;;;;204.18;96.10;;;;;;;;;;5055250;28;20041;-87
2023/01/07 00:07:31;;;;;;;204.60;94.90;;;;;;;;;;5074972;28;20037;-81
2023/01/07 00:10:16;;;;;;;208.93;100.40;;;;;;;;;;5055234;28;20493;-87
2023/01/07 00:13:02;;;;;;;169.00;76.25;;;;;;;;;;5074923;28;20049;-81
2023/01/07 00:15:47;;;;;;;170.48;78.40;;;;;;;;;;5054959;28;20041;-82
2023/01/07 00:18:35;;;;;;;144.45;66.90;;;;;;;;;;5067876;28;20049;-87
2023/01/07 00:21:22;;;;;;;146.38;65.97;;;;;;;;;;5074721;28;20486;-87
2023/01/07 00:24:09;;;;;;;175.85;84.22;;;;;;;;;;5046652;28;20394;-82
2023/01/07 00:26:54;;;;;;;244.02;115.78;;;;;;;;;;5055256;28;20049;-87
2023/01/07 00:29:39;;;;;;;234.27;114.57;;;;;;;;;;5054989;28;20044;-88
2023/01/07 00:32:49;;;;;;;253.13;116.40;;;;;;;;;;5061024;28;20048;-79
2023/01/07 00:35:37;;;;;;;305.08;141.73;;;;;;;;;;5054605;28;20037;-87
2023/01/07 00:38:23;;;;;;;242.13;115.35;;;;;;;;;;5060001;28;20041;-79
2023/01/07 00:41:08;;;;;;;231.93;113.63;;;;;;;;;;5053815;28;20045;-85
2023/01/07 00:43:55;;;;;;;220.93;103.47;;;;;;;;;;5053558;28;20045;-85
2023/01/07 00:46:39;;;;;;;233.55;110.68;;;;;;;;;;5054510;28;20041;-79
2023/01/07 00:49:25;;;;;;;227.82;110.43;;;;;;;;;;5054548;28;20506;-79
2023/01/07 00:52:10;;;;;;;223.13;108.65;;;;;;;;;;5060083;28;20049;-78
2023/01/07 00:54:57;;;;;;;219.02;106.68;;;;;;;;;;5074150;28;20045;-81
2023/01/07 00:57:44;;;;;;;226.18;107.90;;;;;;;;;;5055060;28;20410;-79
2023/01/07 01:00:31;;;;;;;218.57;104.82;;;;;;;;;;5074763;28;20045;-89
2023/01/07 01:03:16;;;;;;;220.60;102.93;;;;;;;;;;5063304;28;20039;-87
2023/01/07 01:06:12;;;;;;;221.25;107.18;;;;;;;;;;5063968;28;20041;-87
2023/01/07 01:08:57;;;;;;;186.55;85.68;;;;;;;;;;5077795;28;20040;-80
2023/01/07 01:11:43;;;;;;;153.85;69.05;;;;;;;;;;5054161;28;20053;-80
2023/01/07 01:14:29;;;;;;;117.55;52.28;;;;;;;;;;5056828;28;20045;-87
2023/01/07 01:17:14;;;;;;;101.28;46.33;;;;;;;;;;5061481;28;20048;-87
2023/01/07 01:20:00;;;;;;;102.55;48.13;;;;;;;;;;5060556;28;20040;-87
2023/01/07 01:22:52;;;;;;;103.93;46.10;;;;;;;;;;5054343;28;20498;-80
2023/01/07 01:25:41;;;;;;;100.18;44.40;;;;;;;;;;5053999;28;20053;-81
2023/01/07 01:28:35;;;;;;;94.82;44.22;;;;;;;;;;5071722;28;20037;-88
2023/01/07 01:31:29;;;;;;;104.80;45.88;;;;;;;;;;5073843;28;20044;-81
2023/01/07 01:34:15;;;;;;;88.35;41.50;;;;;;;;;;5053985;28;20045;-87
2023/01/07 01:37:06;;;;;;;88.97;40.83;;;;;;;;;;5059336;28;20037;-81
2023/01/07 01:39:52;;;;;;;102.90;45.50;;;;;;;;;;5053039;28;20045;-81
2023/01/07 01:42:36;;;;;;;117.88;49.30;;;;;;;;;;5053855;28;20041;-80
2023/01/07 01:45:25;;;;;;;156.57;64.10;;;;;;;;;;5073437;28;20056;-87
2023/01/07 01:48:10;;;;;;;139.07;58.55;;;;;;;;;;5058641;28;20041;-88
2023/01/07 01:50:57;;;;;;;151.40;59.10;;;;;;;;;;5059462;28;20044;-88
2023/01/07 01:53:42;;;;;;;143.70;62.50;;;;;;;;;;5059155;28;20041;-84
2023/01/07 01:56:32;;;;;;;197.20;83.35;;;;;;;;;;5071821;28;20045;-85
2023/01/07 01:59:22;;;;;;;165.63;72.28;;;;;;;;;;5084313;28;20049;-85
2023/01/07 02:02:08;;;;;;;198.77;82.57;;;;;;;;;;5079943;28;20048;-85
2023/01/07 02:04:54;;;;;;;181.57;76.60;;;;;;;;;;5077810;28;20053;-84
2023/01/07 02:07:40;;;;;;;195.07;84.85;;;;;;;;;;5060164;28;20041;-85
2023/01/07 02:10:27;;;;;;;167.10;68.82;;;;;;;;;;5086476;28;20398;-85
2023/01/07 02:13:53;;;;;;;124.28;51.58;;;;;;;;;;5054385;28;20044;-85
2023/01/07 02:17:11;;;;;;;106.30;45.83;;;;;;;;;;5072641;28;20045;-85
2023/01/07 02:20:35;;;;;;;110.03;45.20;;;;;;;;;;5077311;28;20044;-84
2023/01/07 02:24:03;;;;;;;89.32;37.33;;;;;;;;;;5079089;28;20049;-84
2023/01/07 02:27:20;;;;;;;72.03;34.05;;;;;;;;;;5060882;28;20040;-85
2023/01/07 02:30:36;;;;;;;71.13;36.03;;;;;;;;;;5044985;28;20474;-85
2023/01/07 02:33:36;;;;;;;89.35;40.40;;;;;;;;;;5085232;28;20041;-84
2023/01/07 02:36:55;;;;;;;82.35;38.85;;;;;;;;;;5094835;28;20040;-85
2023/01/07 02:39:50;;;;;;;78.38;35.55;;;;;;;;;;5096726;28;20053;-85
2023/01/07 02:42:46;;;;;;;73.82;34.80;;;;;;;;;;5057505;28;20386;-85
2023/01/07 02:45:39;;;;;;;75.60;34.28;;;;;;;;;;5067738;28;20040;-84
2023/01/07 02:48:25;;;;;;;76.05;33.55;;;;;;;;;;5083432;28;20045;-85
2023/01/07 02:51:11;;;;;;;74.40;33.90;;;;;;;;;;5053626;28;20048;-85
2023/01/07 02:53:57;;;;;;;73.20;34.50;;;;;;;;;;5052045;28;20044;-85
2023/01/07 02:57:20;;;;;;;70.03;34.42;;;;;;;;;;5087755;28;20057;-84
2023/01/07 03:00:24;;;;;;;84.82;38.03;;;;;;;;;;5069564;28;20041;-85
2023/01/07 03:03:36;;;;;;;78.88;36.53;;;;;;;;;;5062947;28;20044;-85
2023/01/07 03:06:45;;;;;;;89.97;38.40;;;;;;;;;;5080159;28;20029;-85
2023/01/07 03:09:38;;;;;;;72.88;33.88;;;;;;;;;;5093177;28;20053;-85
2023/01/07 03:12:34;;;;;;;75.97;36.40;;;;;;;;;;5101877;28;20025;-85
2023/01/07 03:15:43;;;;;;;99.82;43.97;;;;;;;;;;5076281;28;20045;-85
2023/01/07 03:18:33;;;;;;;98.00;41.30;;;;;;;;;;5067576;28;20017;-85
2023/01/07 03:21:20;;;;;;;84.07;39.08;;;;;;;;;;5079555;28;20045;-85
2023/01/07 03:24:07;;;;;;;79.68;34.42;;;;;;;;;;5090495;28;20040;-84
2023/01/07 03:26:56;;;;;;;72.82;32.38;;;;;;;;;;5071690;28;20398;-85
2023/01/07 03:29:42;;;;;;;66.38;30.85;;;;;;;;;;5076752;28;20041;-85
2023/01/07 03:32:46;;;;;;;62.35;29.13;;;;;;;;;;5061877;28;20041;-85
2023/01/07 03:35:34;;;;;;;60.58;32.03;;;;;;;;;;5075640;28;20041;-85
2023/01/07 03:38:22;;;;;;;59.83;29.90;;;;;;;;;;5076383;28;20052;-85
2023/01/07 03:42:38;;;;;;;63.50;30.50;;;;;;;;;;5081305;28;20049;-85
2023/01/07 03:44:14;;;;;;;62.55;28.77;;;;;;;;;;5064430;28;20049;-85
2023/01/07 03:47:01;;;;;;;55.05;29.08;;;;;;;;;;5057083;28;20033;-84
2023/01/07 03:49:47;;;;;;;80.38;36.08;;;;;;;;;;5062949;28;20053;-84
2023/01/07 03:52:32;;;;;;;87.78;39.25;;;;;;;;;;5058021;28;20049;-86
2023/01/07 03:55:18;;;;;;;81.70;36.28;;;;;;;;;;5063803;28;20394;-85
2023/01/07 03:58:06;;;;;;;85.28;38.75;;;;;;;;;;5078740;28;20479;-86
2023/01/07 04:00:53;;;;;;;69.32;33.40;;;;;;;;;;5065980;28;20053;-86
2023/01/07 04:03:38;;;;;;;81.38;37.75;;;;;;;;;;5061095;28;20045;-85
2023/01/07 04:06:24;;;;;;;85.80;40.30;;;;;;;;;;5063906;28;20045;-86
2023/01/07 04:09:10;;;;;;;82.47;38.05;;;;;;;;;;5078541;28;20048;-86
2023/01/07 04:11:56;;;;;;;101.13;40.60;;;;;;;;;;5055137;28;20398;-85
2023/01/07 04:14:41;;;;;;;105.35;45.25;;;;;;;;;;5077521;28;20041;-86
2023/01/07 04:17:27;;;;;;;116.28;45.40;;;;;;;;;;5077850;28;20479;-85
2023/01/07 04:20:12;;;;;;;109.03;45.10;;;;;;;;;;5075100;28;20371;-85
2023/01/07 04:22:58;;;;;;;91.63;41.63;;;;;;;;;;5063677;28;20049;-86
2023/01/07 04:25:47;;;;;;;95.85;44.08;;;;;;;;;;5062039;28;20044;-86
2023/01/07 04:28:36;;;;;;;95.18;43.35;;;;;;;;;;5050139;28;20040;-85
2023/01/07 04:31:21;;;;;;;111.03;47.33;;;;;;;;;;5078060;28;20036;-86
2023/01/07 04:34:08;;;;;;;100.40;41.50;;;;;;;;;;5077937;28;20044;-85
2023/01/07 04:36:54;;;;;;;89.47;41.47;;;;;;;;;;5081096;28;20049;-85
2023/01/07 04:39:40;;;;;;;117.43;49.08;;;;;;;;;;5063529;28;20045;-85
2023/01/07 04:42:26;;;;;;;106.90;47.83;;;;;;;;;;5057944;28;20097;-84
2023/01/07 04:45:12;;;;;;;109.88;50.05;;;;;;;;;;5060968;28;20487;-86
2023/01/07 04:47:57;;;;;;;118.78;52.22;;;;;;;;;;5078318;28;20037;-85
2023/01/07 04:50:42;;;;;;;113.82;50.30;;;;;;;;;;5078275;28;20036;-86
2023/01/07 04:53:28;;;;;;;113.20;50.97;;;;;;;;;;5074878;28;20061;-85
2023/01/07 04:56:14;;;;;;;112.32;47.58;;;;;;;;;;5060316;28;20418;-84
2023/01/07 04:58:59;;;;;;;108.70;50.42;;;;;;;;;;5056970;28;20041;-85
2023/01/07 05:01:45;;;;;;;103.07;47.13;;;;;;;;;;5061572;28;20493;-86
2023/01/07 05:04:30;;;;;;;93.25;44.00;;;;;;;;;;5068964;28;20044;-87
2023/01/07 05:07:16;;;;;;;120.20;49.95;;;;;;;;;;5077689;28;20045;-84
2023/01/07 05:10:02;;;;;;;111.93;47.58;;;;;;;;;;5061806;28;20045;-84
2023/01/07 05:12:49;;;;;;;119.85;50.22;;;;;;;;;;5046067;28;20041;-86
2023/01/07 05:15:36;;;;;;;120.13;49.95;;;;;;;;;;5079126;28;20044;-85
2023/01/07 05:18:23;;;;;;;107.50;49.78;;;;;;;;;;5075608;28;20045;-84
2023/01/07 05:21:09;;;;;;;110.10;47.00;;;;;;;;;;5074059;28;20470;-84
2023/01/07 05:23:56;;;;;;;156.23;59.83;;;;;;;;;;5077816;28;20044;-84
2023/01/07 05:26:42;;;;;;;141.43;53.95;;;;;;;;;;5073545;28;20048;-86
2023/01/07 05:29:27;;;;;;;150.07;55.35;;;;;;;;;;5059737;28;20045;-84
2023/01/07 05:32:13;;;;;;;158.77;62.13;;;;;;;;;;5059330;28;20037;-83
2023/01/07 05:35:00;;;;;;;149.85;56.45;;;;;;;;;;5059516;28;20041;-84
2023/01/07 05:37:46;;;;;;;127.88;51.55;;;;;;;;;;5059587;28;20486;-84
2023/01/07 05:40:32;;;;;;;122.55;51.75;;;;;;;;;;5038707;28;20048;-84
2023/01/07 05:43:18;;;;;;;124.38;53.05;;;;;;;;;;5077624;28;20045;-86
2023/01/07 05:46:03;;;;;;;84.45;41.42;;;;;;;;;;5083169;28;20020;-84
2023/01/07 05:48:49;;;;;;;102.53;45.60;;;;;;;;;;5078405;28;20033;-84
2023/01/07 05:51:35;;;;;;;96.00;43.28;;;;;;;;;;5081680;28;20159;-84
2023/01/07 05:54:20;;;;;;;107.30;48.08;;;;;;;;;;5048983;28;20045;-84
2023/01/07 05:57:05;;;;;;;128.13;56.65;;;;;;;;;;5053349;28;20048;-85
2023/01/07 05:59:51;;;;;;;145.27;69.60;;;;;;;;;;5053127;28;20045;-84
2023/01/07 06:02:37;;;;;;;127.15;52.60;;;;;;;;;;5064550;28;20049;-84
2023/01/07 06:05:22;;;;;;;135.98;59.78;;;;;;;;;;5056520;28;20479;-85
2023/01/07 06:08:08;;;;;;;175.25;72.57;;;;;;;;;;5057959;28;20037;-84
2023/01/07 06:10:53;;;;;;;214.77;78.07;;;;;;;;;;5075013;28;20032;-85
2023/01/07 06:13:39;;;;;;;199.98;68.72;;;;;;;;;;5073392;28;20045;-85
2023/01/07 06:16:23;;;;;;;164.55;59.75;;;;;;;;;;5053624;28;20049;-85
2023/01/07 06:19:09;;;;;;;151.73;56.85;;;;;;;;;;5073041;28;20479;-84
2023/01/07 06:21:55;;;;;;;145.57;55.28;;;;;;;;;;5059520;28;20056;-83
2023/01/07 06:24:40;;;;;;;130.30;52.50;;;;;;;;;;5053809;28;20044;-83
2023/01/07 06:27:26;;;;;;;110.13;46.55;;;;;;;;;;5066067;28;20053;-85
2023/01/07 06:30:11;;;;;;;125.25;45.70;;;;;;;;;;5073318;28;20041;-84
2023/01/07 06:32:57;;;;;;;123.88;49.03;;;;;;;;;;5053310;28;20052;-84
2023/01/07 06:35:44;;;;;;;140.43;67.00;;;;;;;;;;5076995;28;20478;-85
2023/01/07 06:38:29;;;;;;;160.77;60.80;;;;;;;;;;5057133;28;20045;-84
2023/01/07 06:41:15;;;;;;;144.05;60.83;;;;;;;;;;5056993;28;20402;-84
2023/01/07 06:44:00;;;;;;;151.65;59.88;;;;;;;;;;5056860;28;20048;-85
2023/01/07 06:46:46;;;;;;;156.55;57.03;;;;;;;;;;5069914;28;20041;-84
2023/01/07 06:49:31;;;;;;;156.43;61.78;;;;;;;;;;5056516;28;20049;-84
2023/01/07 06:52:16;;;;;;;120.22;55.75;;;;;;;;;;5056360;28;20045;-85
2023/01/07 06:55:02;;;;;;;162.15;65.85;;;;;;;;;;5056462;28;20502;-84
2023/01/07 06:57:47;;;;;;;147.07;64.90;;;;;;;;;;5056526;28;20053;-85
2023/01/07 07:00:33;;;;;;;150.93;69.45;;;;;;;;;;5070103;28;20051;-83
2023/01/07 07:03:18;;;;;;;189.38;73.93;;;;;;;;;;5075855;28;20490;-84
2023/01/07 07:06:04;;;;;;;150.00;65.07;;;;;;;;;;5056041;28;20375;-84
2023/01/07 07:08:50;;;;;;;180.38;76.78;;;;;;;;;;5055947;28;20033;-84
2023/01/07 07:11:35;;;;;;;172.68;74.05;;;;;;;;;;5056230;28;20048;-84
2023/01/07 07:14:21;;;;;;;180.63;76.93;;;;;;;;;;5055944;28;20391;-83
2023/01/07 07:17:06;;;;;;;190.10;88.88;;;;;;;;;;5069216;28;20057;-83
2023/01/07 07:19:52;;;;;;;155.48;69.38;;;;;;;;;;5056250;28;20037;-86
2023/01/07 07:22:42;;;;;;;156.45;67.35;;;;;;;;;;5055900;28;20044;-84
2023/01/07 07:25:27;;;;;;;180.73;71.00;;;;;;;;;;5047261;28;20045;-86
2023/01/07 07:28:13;;;;;;;168.40;75.88;;;;;;;;;;5055313;28;20478;-86
2023/01/07 07:30:58;;;;;;;188.50;91.93;;;;;;;;;;5061523;28;20037;-88
2023/01/07 07:33:44;;;;;;;218.45;98.88;;;;;;;;;;5054748;28;20475;-86
2023/01/07 07:36:30;;;;;;;217.80;97.20;;;;;;;;;;5055648;28;20036;-85
2023/01/07 07:39:15;;;;;;;173.05;76.22;;;;;;;;;;5068668;28;20041;-87
2023/01/07 07:42:04;;;;;;;166.75;73.38;;;;;;;;;;5054529;28;20045;-85
2023/01/07 07:44:49;;;;;;;178.13;80.43;;;;;;;;;;5068063;28;20045;-87
2023/01/07 07:47:35;;;;;;;179.32;83.88;;;;;;;;;;5054286;28;20044;-86
2023/01/07 07:50:21;;;;;;;206.73;92.72;;;;;;;;;;5055229;28;20041;-85
2023/01/07 07:53:08;;;;;;;226.18;96.70;;;;;;;;;;5055010;28;20045;-85
2023/01/07 07:55:53;;;;;;;235.45;104.20;;;;;;;;;;5068077;28;20045;-85
2023/01/07 07:58:39;;;;;;;266.73;121.72;;;;;;;;;;5054798;28;20379;-85
2023/01/07 08:01:24;;;;;;;209.40;107.82;;;;;;;;;;5068096;28;20041;-85
2023/01/07 08:04:09;;;;;;;218.10;100.82;;;;;;;;;;5054894;28;20053;-86
2023/01/07 08:06:55;;;;;;;220.80;105.28;;;;;;;;;;5054980;28;20052;-86
2023/01/07 08:09:40;;;;;;;276.67;135.85;;;;;;;;;;5046488;28;20036;-87
2023/01/07 08:12:25;;;;;;;281.40;132.60;;;;;;;;;;5060418;28;20037;-86
2023/01/07 08:15:11;;;;;;;256.92;133.18;;;;;;;;;;5046841;28;20386;-86
2023/01/07 08:17:59;;;;;;;303.23;149.90;;;;;;;;;;5054569;28;20044;-86
2023/01/07 08:20:43;;;;;;;283.90;138.02;;;;;;;;;;5054845;28;20044;-87
2023/01/07 08:23:30;;;;;;;259.35;132.15;;;;;;;;;;5074649;28;20040;-86
2023/01/07 08:26:15;;;;;;;309.13;153.25;;;;;;;;;;5068004;28;20040;-86
2023/01/07 08:29:00;;;;;;;293.60;142.48;;;;;;;;;;5060889;28;20049;-85
2023/01/07 08:31:45;;;;;;;314.92;155.25;;;;;;;;;;5066585;28;20053;-85
2023/01/07 08:34:30;;;;;;;303.33;154.27;;;;;;;;;;5053171;28;20049;-86
2023/01/07 08:37:16;;;;;;;314.85;163.60;;;;;;;;;;5059503;28;20048;-85
2023/01/07 08:40:03;;;;;;;331.75;181.25;;;;;;;;;;5058828;28;20040;-85
2023/01/07 08:42:48;;;;;;;316.10;167.43;;;;;;;;;;5054172;28;20049;-86
2023/01/07 08:45:36;;;;;;;306.25;172.75;;;;;;;;;;5053402;28;20482;-86
2023/01/07 08:48:22;;;;;;;307.60;168.35;;;;;;;;;;5055742;28;20036;-85
2023/01/07 08:51:07;;;;;;;276.40;145.80;;;;;;;;;;5074155;28;20049;-80
2023/01/07 08:53:58;;;;;;;279.95;145.18;;;;;;;;;;5054105;28;20041;-79
2023/01/07 08:56:43;;;;;;;267.20;146.32;;;;;;;;;;5054043;28;20041;-83
2023/01/07 08:59:29;;;;;;;289.20;155.68;;;;;;;;;;5066916;28;20045;-84
2023/01/07 09:02:17;;;;;;;296.20;165.75;;;;;;;;;;5067211;28;20037;-80
2023/01/07 09:05:04;;;;;;;299.95;157.48;;;;;;;;;;5054151;28;20041;-81
2023/01/07 09:07:54;;;;;;;310.52;184.93;;;;;;;;;;5053985;28;20067;-80
2023/01/07 09:10:39;;;;;;;259.02;147.75;;;;;;;;;;5053638;28;20439;-82
2023/01/07 09:13:25;;;;;;;210.73;115.28;;;;;;;;;;5054147;28;20037;-81
2023/01/07 09:16:10;;;;;;;178.48;99.50;;;;;;;;;;5060812;28;20041;-83
2023/01/07 09:18:56;;;;;;;218.65;116.90;;;;;;;;;;5053200;28;20049;-81
2023/01/07 09:21:41;;;;;;;207.63;116.40;;;;;;;;;;5053668;28;20037;-81
2023/01/07 09:24:27;;;;;;;230.75;123.68;;;;;;;;;;5053724;28;20045;-81
2023/01/07 09:27:13;;;;;;;199.30;112.72;;;;;;;;;;5053620;28;20041;-82
2023/01/07 09:29:58;;;;;;;185.27;100.00;;;;;;;;;;5053411;28;20049;-82
2023/01/07 09:32:44;;;;;;;168.50;91.28;;;;;;;;;;5053746;28;20037;-81
2023/01/07 09:35:29;;;;;;;158.10;81.15;;;;;;;;;;5053352;28;20045;-81
2023/01/07 09:38:15;;;;;;;149.90;81.43;;;;;;;;;;5053363;28;20482;-81
2023/01/07 09:41:01;;;;;;;129.93;68.80;;;;;;;;;;5073211;28;20048;-85
2023/01/07 09:43:51;;;;;;;124.82;69.13;;;;;;;;;;5059928;28;20044;-81
2023/01/07 09:46:42;;;;;;;111.60;59.05;;;;;;;;;;5053667;28;20045;-82
2023/01/07 09:49:31;;;;;;;97.85;51.10;;;;;;;;;;5066091;28;20505;-82
2023/01/07 09:52:36;;;;;;;108.95;56.63;;;;;;;;;;5053925;28;20045;-83
2023/01/07 09:55:32;;;;;;;132.07;65.05;;;;;;;;;;5053448;28;20425;-81
2023/01/07 09:58:19;;;;;;;117.03;63.88;;;;;;;;;;5052795;28;20479;-82
2023/01/07 10:01:24;;;;;;;126.65;65.03;;;;;;;;;;5051926;28;20041;-82
2023/01/07 10:04:28;;;;;;;149.15;82.55;;;;;;;;;;5059881;28;20048;-81
2023/01/07 10:07:29;;;;;;;132.25;70.70;;;;;;;;;;5053319;28;20040;-80
2023/01/07 10:10:25;;;;;;;136.98;75.07;;;;;;;;;;5063159;28;20048;-78
2023/01/07 10:13:37;;;;;;;190.40;99.57;;;;;;;;;;5057790;28;20135;-80
2023/01/07 10:16:47;;;;;;;166.65;92.75;;;;;;;;;;5057251;28;20089;-78
2023/01/07 10:20:16;;;;;;;162.45;86.68;;;;;;;;;;5056420;28;20033;-78
2023/01/07 10:23:14;;;;;;;170.88;93.97;;;;;;;;;;5050249;28;20053;-79
2023/01/07 10:26:00;;;;;;;185.00;103.70;;;;;;;;;;5063612;28;20053;-78
2023/01/07 10:29:13;;;;;;;171.68;95.60;;;;;;;;;;5058576;28;20041;-86
2023/01/07 10:32:06;;;;;;;158.95;86.00;;;;;;;;;;5056641;28;20041;-81
2023/01/07 10:34:55;;;;;;;142.43;81.28;;;;;;;;;;5063430;28;20402;-80
2023/01/07 10:37:42;;;;;;;130.27;71.43;;;;;;;;;;5063426;28;20032;-79
2023/01/07 10:40:42;;;;;;;125.10;68.35;;;;;;;;;;5057009;28;20425;-81
2023/01/07 10:43:55;;;;;;;136.82;73.38;;;;;;;;;;5062750;28;20389;-83
2023/01/07 10:51:23;;;;;;;66.78;35.97;;;;;;;;;;5058605;28;20045;-81
2023/01/07 10:54:26;;;;;;;82.90;43.75;;;;;;;;;;5076875;28;20037;-84
2023/01/07 10:57:19;;;;;;;84.85;45.28;;;;;;;;;;5056624;28;20049;-87
2023/01/07 11:00:06;;;;;;;95.43;51.28;;;;;;;;;;5062112;28;20037;-83
2023/01/07 11:02:56;;;;;;;98.13;46.75;;;;;;;;;;5055306;28;20041;-80
2023/01/07 11:05:44;;;;;;;94.30;49.65;;;;;;;;;;5053349;28;20482;-86
2023/01/07 11:08:39;;;;;;;99.90;52.65;;;;;;;;;;5046029;28;20036;-83
2023/01/07 11:11:25;;;;;;;85.97;46.70;;;;;;;;;;5059727;28;20399;-85
2023/01/07 11:14:31;;;;;;;89.85;46.28;;;;;;;;;;5046963;28;20037;-85
2023/01/07 11:17:37;;;;;;;82.18;45.63;;;;;;;;;;5054533;28;20421;-82
2023/01/07 11:20:54;;;;;;;72.82;37.97;;;;;;;;;;5046520;28;20041;-84
2023/01/07 11:23:40;;;;;;;64.63;35.15;;;;;;;;;;5075123;28;20040;-85
2023/01/07 11:26:29;;;;;;;60.42;32.95;;;;;;;;;;5054741;28;20053;-83
2023/01/07 11:29:34;;;;;;;60.90;33.05;;;;;;;;;;5068796;28;20045;-84
2023/01/07 11:32:29;;;;;;;47.67;28.38;;;;;;;;;;5055697;28;20037;-83
2023/01/07 11:35:14;;;;;;;54.80;30.95;;;;;;;;;;5075983;28;20056;-84
2023/01/07 11:38:00;;;;;;;55.03;31.85;;;;;;;;;;5076947;28;20045;-83
2023/01/07 11:40:58;;;;;;;71.65;38.25;;;;;;;;;;5075027;28;20402;-84
2023/01/07 11:43:48;;;;;;;49.97;30.30;;;;;;;;;;5065779;28;20040;-85
2023/01/07 11:46:33;;;;;;;49.80;29.65;;;;;;;;;;5056202;28;20048;-84
2023/01/07 11:49:31;;;;;;;47.10;26.65;;;;;;;;;;5055856;28;20045;-84
2023/01/07 11:52:18;;;;;;;50.05;27.00;;;;;;;;;;5055676;28;20044;-82
2023/01/07 11:55:04;;;;;;;46.20;28.23;;;;;;;;;;5054405;28;20045;-82
2023/01/07 11:57:54;;;;;;;48.30;29.58;;;;;;;;;;5054973;28;20475;-84
2023/01/07 12:00:38;;;;;;;45.83;27.50;;;;;;;;;;5054865;28;20490;-83
2023/01/07 12:03:23;;;;;;;52.90;30.88;;;;;;;;;;5055250;28;20044;-83
2023/01/07 12:06:32;;;;;;;54.53;31.17;;;;;;;;;;5055042;28;20053;-83
2023/01/07 12:09:26;;;;;;;61.92;35.80;;;;;;;;;;5074398;28;20486;-80
2023/01/07 12:12:35;;;;;;;61.08;33.63;;;;;;;;;;5057561;28;20037;-79
2023/01/07 12:15:26;;;;;;;64.78;36.50;;;;;;;;;;5061654;28;20045;-79
2023/01/07 12:18:32;;;;;;;53.47;31.88;;;;;;;;;;5057903;28;20041;-80
2023/01/07 12:21:33;;;;;;;;;;;;;;;;;;5067925;28;20041;-79
2023/01/07 12:24:32;;;;;;;50.10;29.00;;;;;;;;;;5064615;28;20345;-79
2023/01/07 12:27:57;;;;;;;53.05;29.60;;;;;;;;;;5066401;28;20049;-79
2023/01/07 12:31:20;;;;;;;54.90;34.15;;;;;;;;;;5063780;28;20402;-79
2023/01/07 12:34:19;;;;;;;57.72;33.45;;;;;;;;;;5062446;28;20037;-79
2023/01/07 12:37:29;;;;;;;64.20;35.72;;;;;;;;;;5062988;28;20033;-79
2023/01/07 12:40:17;;;;;;;56.88;33.47;;;;;;;;;;5060845;28;20041;-80
2023/01/07 12:43:19;;;;;;;74.93;40.80;;;;;;;;;;5060911;28;20487;-79
2023/01/07 12:46:12;;;;;;;65.75;38.08;;;;;;;;;;5055449;28;20048;-79
2023/01/07 12:49:19;;;;;;;77.32;42.80;;;;;;;;;;5071003;28;20036;-80
2023/01/07 12:52:10;;;;;;;71.35;37.97;;;;;;;;;;5062512;28;20037;-79
2023/01/07 12:55:03;;;;;;;79.78;43.60;;;;;;;;;;5067559;28;20045;-80
2023/01/07 12:58:04;;;;;;;91.57;49.17;;;;;;;;;;5058519;28;20503;-80
2023/01/07 13:01:10;;;;;;;379.17;203.20;;;;;;;;;;5060168;28;20053;-80
2023/01/07 13:04:15;;;;;;;231.25;132.20;;;;;;;;;;5060181;28;20483;-80
2023/01/07 13:07:13;;;;;;;238.75;146.75;;;;;;;;;;5060310;28;20041;-79
2023/01/07 13:10:09;;;;;;;105.50;69.60;;;;;;;;;;5069064;28;20117;-80
2023/01/07 13:13:00;;;;;;;91.47;57.38;;;;;;;;;;5069564;28;20040;-78
2023/01/07 13:15:47;;;;;;;79.68;46.97;;;;;;;;;;5061605;28;20044;-79
2023/01/07 13:18:32;;;;;;;66.40;38.35;;;;;;;;;;5057552;28;20390;-80
2023/01/07 13:21:20;;;;;;;59.17;36.15;;;;;;;;;;5057955;28;20053;-78
2023/01/07 13:24:18;;;;;;;89.72;51.05;;;;;;;;;;5056905;28;20045;-79
2023/01/07 13:27:32;;;;;;;117.55;70.13;;;;;;;;;;5061661;28;20048;-80
2023/01/07 13:30:23;;;;;;;79.13;42.60;;;;;;;;;;5058864;28;20044;-80
2023/01/07 13:33:12;;;;;;;74.03;40.72;;;;;;;;;;5058623;28;20486;-80
2023/01/07 13:36:13;;;;;;;71.90;42.70;;;;;;;;;;5061084;28;20044;-81
2023/01/07 13:39:17;;;;;;;87.18;47.10;;;;;;;;;;5055389;28;20029;-80
2023/01/07 13:42:24;;;;;;;126.13;70.75;;;;;;;;;;5064583;28;20045;-80
2023/01/07 13:45:12;;;;;;;97.90;54.75;;;;;;;;;;5057708;28;20045;-80
2023/01/07 13:48:01;;;;;;;93.82;52.40;;;;;;;;;;5058992;28;20049;-80
2023/01/07 13:50:57;;;;;;;93.18;52.10;;;;;;;;;;5063449;28;20486;-80
2023/01/07 13:53:44;;;;;;;96.38;53.95;;;;;;;;;;5056168;28;20037;-80
2023/01/07 13:56:34;;;;;;;105.57;56.65;;;;;;;;;;5053870;28;20049;-81
2023/01/07 13:59:28;;;;;;;100.20;52.22;;;;;;;;;;5053426;28;20033;-80
2023/01/07 14:02:21;;;;;;;94.22;51.47;;;;;;;;;;5063623;28;20056;-80
2023/01/07 14:05:09;;;;;;;257.70;125.93;;;;;;;;;;5054128;28;20044;-79
2023/01/07 14:08:01;;;;;;;126.03;65.22;;;;;;;;;;5056819;28;20045;-80
2023/01/07 14:10:52;;;;;;;91.85;51.60;;;;;;;;;;5058992;28;20037;-80
2023/01/07 14:13:38;;;;;;;115.88;62.65;;;;;;;;;;5053504;28;20053;-80
2023/01/07 14:16:32;;;;;;;124.35;66.40;;;;;;;;;;5076665;28;20045;-80
2023/01/07 14:19:36;;;;;;;109.38;55.15;;;;;;;;;;5059716;28;20045;-80
2023/01/07 14:23:00;;;;;;;119.13;58.42;;;;;;;;;;5053537;28;20422;-78
2023/01/07 14:26:23;;;;;;;110.60;54.83;;;;;;;;;;5057717;28;20049;-79
2023/01/07 14:29:39;;;;;;;162.68;79.10;;;;;;;;;;5060241;28;20494;-80
2023/01/07 14:32:25;;;;;;;147.13;71.63;;;;;;;;;;5055005;28;20041;-78
2023/01/07 14:35:10;;;;;;;173.32;84.55;;;;;;;;;;5053523;28;20044;-80
2023/01/07 14:37:55;;;;;;;137.90;69.75;;;;;;;;;;5061743;28;20044;-80
2023/01/07 14:40:41;;;;;;;152.77;79.18;;;;;;;;;;5053794;28;20482;-82
2023/01/07 14:43:42;;;;;;;178.90;93.82;;;;;;;;;;5059768;28;20045;-79
2023/01/07 14:46:27;;;;;;;175.18;96.72;;;;;;;;;;5059813;28;20048;-80
2023/01/07 14:49:36;;;;;;;161.52;88.00;;;;;;;;;;5053348;28;20041;-84
2023/01/07 14:53:12;;;;;;;197.27;106.07;;;;;;;;;;5054858;28;20041;-84
2023/01/07 14:56:09;;;;;;;189.13;106.85;;;;;;;;;;5055027;28;20037;-83
2023/01/07 14:59:14;;;;;;;183.38;104.15;;;;;;;;;;5060842;28;20045;-84
2023/01/07 15:02:34;;;;;;;186.37;103.30;;;;;;;;;;5059442;28;20049;-84
2023/01/07 15:05:50;;;;;;;197.23;105.63;;;;;;;;;;5078578;28;20270;-85
2023/01/07 15:18:48;;;;;;;187.88;105.45;;;;;;;;;;5081907;28;20041;-83
2023/01/07 15:21:53;;;;;;;210.75;113.65;;;;;;;;;;5056643;28;20367;-84
2023/01/07 15:25:20;;;;;;;208.15;111.75;;;;;;;;;;5063236;28;20037;-85
2023/01/07 15:28:25;;;;;;;204.55;104.18;;;;;;;;;;5067280;28;20506;-85
2023/01/07 15:31:20;;;;;;;198.13;98.80;;;;;;;;;;5056492;28;20045;-85
2023/01/07 15:34:10;;;;;;;187.38;97.55;;;;;;;;;;5075239;28;20053;-85
2023/01/07 15:36:56;;;;;;;185.20;97.43;;;;;;;;;;5074056;28;20494;-85
2023/01/07 15:39:50;;;;;;;185.30;94.50;;;;;;;;;;5056875;28;20041;-84
2023/01/07 15:42:41;;;;;;;191.65;97.55;;;;;;;;;;5072105;28;20049;-81
2023/01/07 15:45:36;;;;;;;183.50;91.35;;;;;;;;;;5072530;28;20053;-83
2023/01/07 15:48:21;;;;;;;196.40;104.25;;;;;;;;;;5061552;28;20049;-82
2023/01/07 15:51:17;;;;;;;204.43;104.03;;;;;;;;;;5063031;28;20480;-81
2023/01/07 15:54:06;;;;;;;180.07;96.35;;;;;;;;;;5069110;28;20494;-82
2023/01/07 15:57:11;;;;;;;227.10;113.15;;;;;;;;;;5076089;28;20045;-81
2023/01/07 15:59:57;;;;;;;207.00;97.63;;;;;;;;;;5057251;28;20033;-81
2023/01/07 16:02:43;;;;;;;190.20;97.53;;;;;;;;;;5055312;28;20425;-79
2023/01/07 16:05:30;;;;;;;190.77;96.43;;;;;;;;;;5058067;28;20048;-80
2023/01/07 16:08:17;;;;;;;221.32;114.47;;;;;;;;;;5065077;28;20049;-82
2023/01/07 16:11:20;;;;;;;221.43;113.35;;;;;;;;;;5071360;28;20049;-82
2023/01/07 16:14:14;;;;;;;264.60;132.55;;;;;;;;;;5072219;28;20033;-83
2023/01/07 16:17:09;;;;;;;253.77;126.13;;;;;;;;;;5063016;28;20044;-83
2023/01/07 16:20:31;;;;;;;285.80;147.48;;;;;;;;;;5069788;28;20045;-84
2023/01/07 16:23:23;;;;;;;263.92;135.70;;;;;;;;;;5037537;28;20037;-87
2023/01/07 16:26:43;;;;;;;225.52;122.22;;;;;;;;;;5056298;28;20045;-88
2023/01/07 16:29:38;;;;;;;214.40;112.18;;;;;;;;;;5079155;28;20044;-85
2023/01/07 16:32:24;;;;;;;228.57;121.18;;;;;;;;;;5057837;28;20041;-86
2023/01/07 16:35:18;;;;;;;242.80;125.95;;;;;;;;;;5058789;28;20044;-86
2023/01/07 16:38:04;;;;;;;201.95;107.68;;;;;;;;;;5075964;28;20041;-84
2023/01/07 16:40:51;;;;;;;187.77;98.50;;;;;;;;;;5056099;28;20045;-81
2023/01/07 16:43:39;;;;;;;207.20;110.80;;;;;;;;;;5059539;28;20049;-81